createdAt,value
2023-03-22T00:01:32.281Z,101125.06
2023-03-22T00:04:01.948Z,101125.34
2023-03-22T00:06:31.946Z,101122.91
2023-03-22T00:09:01.786Z,101133.16
2023-03-22T00:11:31.462Z,101127.03
2023-03-22T00:14:01.912Z,101141.41
2023-03-22T00:16:31.520Z,101134.00
2023-03-22T00:19:01.561Z,101146.00
2023-03-22T00:21:31.052Z,101142.28
2023-03-22T00:24:00.518Z,101147.13
2023-03-22T00:26:30.462Z,101148.59
2023-03-22T00:28:59.972Z,101140.06
2023-03-22T00:31:29.514Z,101147.16
2023-03-22T00:33:59.524Z,101157.69
2023-03-22T00:36:29.091Z,101151.59
2023-03-22T00:38:58.589Z,101149.41
2023-03-22T00:41:28.557Z,101144.59
2023-03-22T00:43:58.077Z,101137.28
2023-03-22T00:46:28.309Z,101135.00
2023-03-22T00:48:58.533Z,101136.81
2023-03-22T00:51:28.358Z,101132.13
2023-03-22T00:53:58.394Z,101136.31
2023-03-22T00:56:29.969Z,101139.19
2023-03-22T00:59:07.514Z,101138.38
2023-03-22T01:01:37.838Z,101137.88
2023-03-22T01:04:09.373Z,101140.66
2023-03-22T01:06:38.985Z,101145.78
2023-03-22T01:09:09.121Z,101155.06
2023-03-22T01:11:40.030Z,101150.16
2023-03-22T01:14:10.837Z,101164.81
2023-03-22T01:16:40.850Z,101150.81
2023-03-22T01:19:10.377Z,101159.03
2023-03-22T01:21:40.404Z,101161.50
2023-03-22T01:24:09.859Z,101158.81
2023-03-22T01:26:40.118Z,101163.00
2023-03-22T01:29:09.468Z,101169.69
2023-03-22T01:31:39.261Z,101175.56
2023-03-22T01:34:09.229Z,101174.69
2023-03-22T01:36:38.880Z,101183.63
2023-03-22T01:39:09.293Z,101192.66
2023-03-22T01:41:40.051Z,101195.28
2023-03-22T01:44:20.219Z,101198.94
2023-03-22T01:46:52.464Z,101187.94
2023-03-22T01:49:30.039Z,101179.00
2023-03-22T01:52:08.176Z,101172.19
2023-03-22T01:54:56.149Z,101171.00
2023-03-22T01:57:38.782Z,101155.91
2023-03-22T02:00:16.448Z,101157.63
2023-03-22T02:03:08.237Z,101156.16
2023-03-22T02:05:43.225Z,101137.06
2023-03-22T02:08:16.158Z,101124.41
2023-03-22T02:11:00.666Z,101124.63
2023-03-22T02:13:40.423Z,101116.00
2023-03-22T02:16:54.592Z,101114.84
2023-03-22T02:19:48.135Z,101114.03
2023-03-22T02:22:40.295Z,101116.59
2023-03-22T02:25:34.837Z,101103.00
2023-03-22T02:28:22.580Z,101121.44
2023-03-22T02:31:19.568Z,101129.13
2023-03-22T02:33:54.750Z,101126.84
2023-03-22T02:36:55.446Z,101134.38
2023-03-22T02:39:44.416Z,101129.44
2023-03-22T02:42:39.635Z,101133.91
2023-03-22T02:45:47.426Z,101134.47
2023-03-22T02:48:43.145Z,101132.31
2023-03-22T02:51:22.885Z,101127.66
2023-03-22T02:54:12.292Z,101139.28
2023-03-22T02:56:44.252Z,101146.47
2023-03-22T02:59:15.172Z,101145.03
2023-03-22T03:01:50.649Z,101140.84
2023-03-22T03:04:29.859Z,101144.56
2023-03-22T03:07:10.549Z,101156.88
2023-03-22T03:09:43.318Z,101177.34
2023-03-22T03:12:22.785Z,101185.50
2023-03-22T03:14:55.897Z,101191.22
2023-03-22T03:17:39.303Z,101194.41
2023-03-22T03:20:50.619Z,101188.03
2023-03-22T03:23:30.642Z,101167.06
2023-03-22T03:26:08.550Z,101149.41
2023-03-22T03:28:44.425Z,101154.50
2023-03-22T03:31:33.482Z,101148.81
2023-03-22T03:34:35.259Z,101139.25
2023-03-22T03:37:15.983Z,101138.41
2023-03-22T03:39:52.702Z,101146.69
2023-03-22T03:42:26.889Z,101154.72
2023-03-22T03:44:58.369Z,101152.03
2023-03-22T03:47:30.894Z,101149.38
2023-03-22T03:50:00.405Z,101147.94
2023-03-22T03:52:30.500Z,101144.91
2023-03-22T03:55:00.395Z,101128.84
2023-03-22T03:57:34.246Z,101124.56
2023-03-22T04:00:05.406Z,101118.31
2023-03-22T04:02:57.199Z,101101.00
2023-03-22T04:05:45.883Z,101101.72
2023-03-22T04:08:16.691Z,101090.28
2023-03-22T04:10:51.946Z,101101.00
2023-03-22T04:13:25.767Z,101105.09
2023-03-22T04:16:03.194Z,101108.50
2023-03-22T04:18:36.987Z,101104.19
2023-03-22T04:21:09.797Z,101098.47
2023-03-22T04:23:52.748Z,101095.63
2023-03-22T04:26:22.828Z,101094.19
2023-03-22T04:29:33.275Z,101092.78
2023-03-22T04:32:23.989Z,101085.78
2023-03-22T04:34:55.176Z,101091.50
2023-03-22T04:37:32.653Z,101095.44
2023-03-22T04:40:23.141Z,101110.81
2023-03-22T04:43:05.988Z,101116.84
2023-03-22T04:45:59.427Z,101114.88
2023-03-22T04:48:34.729Z,101127.94
2023-03-22T04:51:10.928Z,101120.25
2023-03-22T04:53:48.150Z,101124.56
2023-03-22T04:56:18.294Z,101127.75
2023-03-22T04:58:50.690Z,101129.34
2023-03-22T05:01:20.827Z,101137.75
2023-03-22T05:03:57.341Z,101128.84
2023-03-22T05:06:28.188Z,101142.03
2023-03-22T05:09:05.079Z,101148.28
2023-03-22T05:11:35.083Z,101147.38
2023-03-22T05:14:21.341Z,101139.31
2023-03-22T05:16:51.262Z,101136.25
2023-03-22T05:19:23.525Z,101121.84
2023-03-22T05:21:59.216Z,101117.00
2023-03-22T05:24:41.882Z,101115.59
2023-03-22T05:27:15.681Z,101104.69
2023-03-22T05:29:47.838Z,101102.56
2023-03-22T05:32:26.668Z,101111.28
2023-03-22T05:34:57.844Z,101099.88
2023-03-22T05:37:36.241Z,101099.00
2023-03-22T05:40:12.361Z,101099.16
2023-03-22T05:42:46.668Z,101098.13
2023-03-22T05:45:22.209Z,101110.09
2023-03-22T05:48:03.483Z,101109.88
2023-03-22T05:50:34.675Z,101115.06
2023-03-22T05:53:05.198Z,101108.66
2023-03-22T05:55:43.736Z,101106.72
2023-03-22T05:58:14.075Z,101100.59
2023-03-22T06:00:44.248Z,101106.69
2023-03-22T06:03:24.494Z,101099.00
2023-03-22T06:06:11.992Z,101100.94
2023-03-22T06:08:56.412Z,101108.06
2023-03-22T06:11:29.223Z,101098.75
2023-03-22T06:13:59.474Z,101104.72
2023-03-22T06:16:38.010Z,101111.84
2023-03-22T06:19:08.026Z,101117.41
2023-03-22T06:21:38.164Z,101120.97
2023-03-22T06:24:07.729Z,101120.63
2023-03-22T06:26:37.315Z,101121.34
2023-03-22T06:29:06.618Z,101115.81
2023-03-22T06:31:36.948Z,101112.59
2023-03-22T06:34:08.502Z,101108.31
2023-03-22T06:36:42.211Z,101110.28
2023-03-22T06:39:26.963Z,101112.78
2023-03-22T06:41:56.900Z,101102.59
2023-03-22T06:44:26.272Z,101097.75
2023-03-22T06:46:55.680Z,101088.97
2023-03-22T06:49:43.464Z,101095.94
2023-03-22T06:52:18.891Z,101087.34
2023-03-22T06:54:49.084Z,101089.69
2023-03-22T06:57:19.017Z,101082.38
2023-03-22T06:59:48.757Z,101082.16
2023-03-22T07:02:18.226Z,101083.25
2023-03-22T07:05:08.308Z,101082.00
2023-03-22T07:07:38.408Z,101086.84
2023-03-22T07:10:09.363Z,101083.78
2023-03-22T07:12:39.363Z,101078.75
2023-03-22T07:15:13.530Z,101072.16
2023-03-22T07:18:02.684Z,101071.28
2023-03-22T07:20:38.154Z,101066.47
2023-03-22T07:23:11.961Z,101071.28
2023-03-22T07:25:50.328Z,101075.03
2023-03-22T07:28:30.554Z,101065.56
2023-03-22T07:31:08.340Z,101068.28
2023-03-22T07:33:47.941Z,101070.56
2023-03-22T07:36:18.448Z,101063.59
2023-03-22T07:38:48.336Z,101070.31
2023-03-22T07:41:25.196Z,101068.69
2023-03-22T07:44:18.512Z,101068.16
2023-03-22T07:47:04.791Z,101071.41
2023-03-22T07:49:41.512Z,101075.88
2023-03-22T07:52:15.452Z,101074.78
2023-03-22T07:54:45.486Z,101078.91
2023-03-22T07:57:15.141Z,101083.91
2023-03-22T07:59:53.584Z,101092.13
2023-03-22T08:02:25.861Z,101097.47
2023-03-22T08:04:57.346Z,101085.88
2023-03-22T08:07:48.115Z,101095.00
2023-03-22T08:10:17.649Z,101090.84
2023-03-22T08:12:50.125Z,101092.31
2023-03-22T08:15:25.216Z,101096.63
2023-03-22T08:17:59.036Z,101105.91
2023-03-22T08:20:42.476Z,101107.47
2023-03-22T08:23:17.977Z,101111.94
2023-03-22T08:26:20.068Z,101106.22
2023-03-22T08:28:49.560Z,101107.69
2023-03-22T08:31:21.222Z,101109.19
2023-03-22T08:33:52.003Z,101122.59
2023-03-22T08:36:24.027Z,101121.50
2023-03-22T08:39:03.072Z,101113.47
2023-03-22T08:41:52.638Z,101107.94
2023-03-22T08:44:23.285Z,101112.81
2023-03-22T08:46:53.029Z,101119.56
2023-03-22T08:49:23.187Z,101121.16
2023-03-22T08:52:00.526Z,101124.91
2023-03-22T08:54:54.475Z,101133.66
2023-03-22T08:58:02.819Z,101127.06
2023-03-22T09:00:52.884Z,101128.69
2023-03-22T09:03:45.408Z,101135.47
2023-03-22T09:06:15.895Z,101134.22
2023-03-22T09:08:45.909Z,101138.31
2023-03-22T09:11:18.103Z,101131.84
2023-03-22T09:13:50.519Z,101132.78
2023-03-22T09:16:21.255Z,101131.72
2023-03-22T09:18:50.856Z,101128.09
2023-03-22T09:21:23.369Z,101132.72
2023-03-22T09:24:13.346Z,101136.00
2023-03-22T09:26:47.805Z,101137.97
2023-03-22T09:29:20.641Z,101132.94
2023-03-22T09:31:50.180Z,101136.91
2023-03-22T09:34:24.401Z,101144.25
2023-03-22T09:36:55.713Z,101147.94
2023-03-22T09:39:31.083Z,101145.47
2023-03-22T09:42:07.298Z,101146.00
2023-03-22T09:44:46.351Z,101146.91
2023-03-22T09:47:47.780Z,101146.00
2023-03-22T09:50:27.231Z,101140.44
2023-03-22T09:52:56.959Z,101144.34
2023-03-22T09:55:38.388Z,101147.25
2023-03-22T09:58:16.586Z,101150.81
2023-03-22T10:01:09.543Z,101155.84
2023-03-22T10:03:54.568Z,101166.69
2023-03-22T10:06:28.218Z,101176.34
2023-03-22T10:09:15.631Z,101181.72
2023-03-22T10:12:06.132Z,101179.91
2023-03-22T10:14:43.600Z,101171.31
2023-03-22T10:17:24.546Z,101174.72
2023-03-22T10:20:23.069Z,101169.34
2023-03-22T10:22:55.097Z,101178.44
2023-03-22T10:25:26.861Z,101185.03
2023-03-22T10:27:57.900Z,101203.63
2023-03-22T10:30:35.447Z,101200.72
2023-03-22T10:33:19.128Z,101205.22
2023-03-22T10:35:49.849Z,101203.34
2023-03-22T10:38:31.487Z,101211.19
2023-03-22T10:41:03.525Z,101214.28
2023-03-22T10:43:34.939Z,101217.88
2023-03-22T10:46:08.775Z,101225.75
2023-03-22T10:48:43.389Z,101216.41
2023-03-22T10:51:32.244Z,101218.59
2023-03-22T10:54:02.663Z,101225.03
2023-03-22T10:56:32.993Z,101224.16
2023-03-22T10:59:02.289Z,101235.47
2023-03-22T11:01:42.633Z,101243.19
2023-03-22T11:04:15.878Z,101248.25
2023-03-22T11:06:56.449Z,101254.00
2023-03-22T11:09:26.683Z,101244.81
2023-03-22T11:11:58.968Z,101250.91
2023-03-22T11:14:34.648Z,101245.75
2023-03-22T11:17:15.677Z,101246.78
2023-03-22T11:19:59.315Z,101248.38
2023-03-22T11:22:44.040Z,101253.78
2023-03-22T11:25:22.539Z,101257.94
2023-03-22T11:28:13.906Z,101255.97
2023-03-22T11:31:06.718Z,101263.63
2023-03-22T11:33:37.390Z,101267.72
2023-03-22T11:36:18.982Z,101271.28
2023-03-22T11:38:48.961Z,101262.31
2023-03-22T11:41:23.691Z,101256.59
2023-03-22T11:43:59.638Z,101254.94
2023-03-22T11:46:30.929Z,101265.75
2023-03-22T11:49:04.272Z,101258.69
2023-03-22T11:51:37.249Z,101263.13
2023-03-22T11:54:12.089Z,101259.66
2023-03-22T11:56:46.435Z,101260.72
2023-03-22T11:59:24.341Z,101262.31
2023-03-22T12:01:58.067Z,101261.44
2023-03-22T12:04:31.044Z,101260.63
2023-03-22T12:07:03.584Z,101252.22
2023-03-22T12:09:38.493Z,101250.25
2023-03-22T12:12:14.820Z,101255.94
2023-03-22T12:14:55.807Z,101254.81
2023-03-22T12:17:33.535Z,101264.94
2023-03-22T12:20:21.105Z,101268.22
2023-03-22T12:22:55.122Z,101258.34
2023-03-22T12:25:34.641Z,101255.97
2023-03-22T12:28:09.594Z,101258.22
2023-03-22T12:30:46.172Z,101251.38
2023-03-22T12:33:27.857Z,101265.81
2023-03-22T12:36:00.129Z,101264.59
2023-03-22T12:38:36.639Z,101265.50
2023-03-22T12:41:12.438Z,101262.31
2023-03-22T12:44:00.171Z,101260.00
2023-03-22T12:46:46.333Z,101251.31
2023-03-22T12:49:43.441Z,101253.59
2023-03-22T12:52:49.909Z,101248.34
2023-03-22T12:55:43.358Z,101246.91
2023-03-22T12:58:25.425Z,101240.44
2023-03-22T13:01:07.991Z,101238.88
2023-03-22T13:03:46.064Z,101241.41
2023-03-22T13:06:54.906Z,101235.66
2023-03-22T13:09:41.943Z,101233.22
2023-03-22T13:12:20.482Z,101240.19
2023-03-22T13:14:51.253Z,101235.13
2023-03-22T13:17:24.709Z,101238.22
2023-03-22T13:20:12.985Z,101228.84
2023-03-22T13:22:43.376Z,101239.91
2023-03-22T13:25:17.929Z,101241.19
2023-03-22T13:27:47.747Z,101242.84
2023-03-22T13:30:23.244Z,101246.06
2023-03-22T13:32:56.524Z,101243.91
2023-03-22T13:35:29.333Z,101229.88
2023-03-22T13:38:05.479Z,101231.56
2023-03-22T13:40:41.244Z,101234.38
2023-03-22T13:43:23.156Z,101232.56
2023-03-22T13:46:20.923Z,101237.63
2023-03-22T13:48:51.712Z,101235.22
2023-03-22T13:51:24.578Z,101233.09
2023-03-22T13:54:17.330Z,101236.53
2023-03-22T13:57:02.106Z,101239.75
2023-03-22T14:00:12.210Z,101225.84
2023-03-22T14:02:46.184Z,101221.50
2023-03-22T14:05:24.870Z,101217.50
2023-03-22T14:08:00.504Z,101208.91
2023-03-22T14:10:47.232Z,101223.22
2023-03-22T14:13:40.690Z,101212.19
2023-03-22T14:16:19.643Z,101204.84
2023-03-22T14:18:50.944Z,101199.75
2023-03-22T14:21:35.607Z,101193.03
